createdAt,value
2023-04-09T00:00:28.747Z,26.02
2023-04-09T00:02:55.897Z,22.35
2023-04-09T00:05:22.908Z,26.17
2023-04-09T00:07:49.989Z,30.88
2023-04-09T00:10:16.949Z,33.42
2023-04-09T00:12:44.126Z,31.92
2023-04-09T00:15:17.637Z,26.38
2023-04-09T00:20:19.566Z,30.33
2023-04-09T00:22:46.830Z,27.92
2023-04-09T00:25:13.865Z,26.98
2023-04-09T00:27:40.882Z,27.00
2023-04-09T00:30:08.521Z,27.15
2023-04-09T00:32:35.614Z,27.92
2023-04-09T00:35:02.792Z,31.15
2023-04-09T00:37:29.875Z,29.52
2023-04-09T00:39:56.790Z,31.02
2023-04-09T00:42:23.940Z,25.88
2023-04-09T00:44:50.890Z,24.73
2023-04-09T00:47:18.696Z,26.95
2023-04-09T00:49:45.833Z,26.00
2023-04-09T00:52:13.526Z,27.83
2023-04-09T00:54:40.612Z,27.98
2023-04-09T00:57:07.586Z,25.17
2023-04-09T00:59:34.494Z,21.02
2023-04-09T01:02:01.548Z,24.40
2023-04-09T01:04:28.574Z,22.38
2023-04-09T01:06:59.298Z,29.63
2023-04-09T01:09:36.872Z,27.08
2023-04-09T01:12:18.207Z,28.08
2023-04-09T01:15:07.279Z,24.20
2023-04-09T01:17:51.078Z,26.42
2023-04-09T01:20:29.259Z,21.92
2023-04-09T01:23:08.082Z,30.35
2023-04-09T01:25:43.846Z,27.90
2023-04-09T01:28:18.692Z,30.27
2023-04-09T01:30:51.084Z,25.38
2023-04-09T01:33:19.298Z,30.70
2023-04-09T01:35:47.203Z,27.65
2023-04-09T01:38:14.629Z,32.35
2023-04-09T01:40:41.611Z,23.95
2023-04-09T01:43:08.816Z,28.35
2023-04-09T01:45:36.412Z,27.88
2023-04-09T01:48:03.365Z,28.58
2023-04-09T01:50:30.438Z,26.42
2023-04-09T01:52:57.391Z,26.70
2023-04-09T01:55:24.370Z,26.58
2023-04-09T01:57:51.496Z,28.17
2023-04-09T02:00:18.489Z,32.10
2023-04-09T02:03:17.676Z,26.90
2023-04-09T02:05:46.707Z,30.30
2023-04-09T02:08:16.421Z,28.90
2023-04-09T02:10:43.966Z,26.92
2023-04-09T02:13:11.087Z,29.90
2023-04-09T02:15:38.098Z,27.33
2023-04-09T02:18:05.409Z,28.80
2023-04-09T02:20:32.360Z,26.77
2023-04-09T02:22:59.337Z,31.25
2023-04-09T02:25:26.514Z,24.85
2023-04-09T02:27:53.567Z,22.92
2023-04-09T02:30:20.723Z,25.75
2023-04-09T02:32:47.852Z,27.90
2023-04-09T02:35:15.814Z,29.38
2023-04-09T02:37:42.787Z,29.58
2023-04-09T02:40:10.459Z,30.73
2023-04-09T02:42:37.388Z,26.33
2023-04-09T02:45:05.043Z,24.63
2023-04-09T02:47:33.168Z,27.70
2023-04-09T02:50:00.241Z,28.90
2023-04-09T02:52:29.850Z,29.70
2023-04-09T02:54:56.882Z,28.02
2023-04-09T02:57:23.875Z,27.23
2023-04-09T02:59:50.942Z,24.92
2023-04-09T03:02:18.252Z,26.67
2023-04-09T03:04:46.146Z,24.40
2023-04-09T03:07:13.148Z,25.88
2023-04-09T03:09:40.201Z,23.92
2023-04-09T03:12:07.144Z,27.35
2023-04-09T03:14:35.250Z,26.00
2023-04-09T03:17:02.650Z,29.20
2023-04-09T03:19:31.239Z,27.10
2023-04-09T03:21:58.154Z,27.33
2023-04-09T03:24:27.571Z,25.37
2023-04-09T03:26:55.308Z,27.08
2023-04-09T03:29:22.401Z,24.42
2023-04-09T03:31:49.389Z,23.38
2023-04-09T03:34:16.475Z,26.25
2023-04-09T03:36:47.522Z,20.38
2023-04-09T03:39:30.958Z,26.58
2023-04-09T03:41:59.075Z,26.58
2023-04-09T03:44:30.017Z,29.38
2023-04-09T03:47:23.269Z,28.08
2023-04-09T03:49:51.066Z,24.52
2023-04-09T03:52:25.140Z,25.73
2023-04-09T03:54:59.704Z,26.00
2023-04-09T03:57:28.236Z,26.05
2023-04-09T03:59:56.044Z,29.50
2023-04-09T04:02:27.194Z,31.15
2023-04-09T04:05:02.229Z,25.75
2023-04-09T04:07:34.439Z,33.03
2023-04-09T04:10:12.585Z,25.35
2023-04-09T04:12:43.989Z,22.83
2023-04-09T04:15:23.543Z,24.80
2023-04-09T04:17:55.500Z,26.13
2023-04-09T04:20:42.711Z,26.33
2023-04-09T04:23:13.316Z,24.17
2023-04-09T04:26:00.748Z,23.92
2023-04-09T04:28:34.889Z,22.67
2023-04-09T04:31:02.206Z,27.77
2023-04-09T04:33:32.141Z,24.55
2023-04-09T04:36:07.417Z,24.05
2023-04-09T04:38:43.896Z,26.67
2023-04-09T04:41:33.678Z,24.92
2023-04-09T04:44:22.841Z,26.92
2023-04-09T04:46:55.844Z,25.60
2023-04-09T04:49:22.870Z,35.40
2023-04-09T04:51:51.408Z,35.35
2023-04-09T04:54:18.748Z,35.05
2023-04-09T04:56:51.020Z,35.53
2023-04-09T04:59:40.086Z,29.75
2023-04-09T05:02:09.434Z,30.88
2023-04-09T05:04:59.444Z,32.60
2023-04-09T05:07:34.569Z,34.00
2023-04-09T05:10:02.086Z,38.10
2023-04-09T05:12:36.493Z,39.53
2023-04-09T05:15:04.756Z,38.45
2023-04-09T05:17:32.224Z,40.97
2023-04-09T05:20:00.215Z,44.15
2023-04-09T05:22:36.368Z,41.95
2023-04-09T05:25:04.210Z,48.70
2023-04-09T05:27:37.031Z,52.15
2023-04-09T05:30:05.402Z,50.53
2023-04-09T05:32:32.690Z,43.97
2023-04-09T05:35:00.578Z,45.83
2023-04-09T05:37:28.990Z,43.95
2023-04-09T05:39:57.094Z,44.53
2023-04-09T05:42:24.925Z,43.35
2023-04-09T05:45:05.183Z,65.68
2023-04-09T05:47:32.197Z,40.58
2023-04-09T05:50:07.720Z,34.20
2023-04-09T05:52:35.294Z,31.38
2023-04-09T05:55:03.666Z,34.65
2023-04-09T05:57:41.905Z,45.45
2023-04-09T06:00:09.877Z,46.80
2023-04-09T06:02:48.045Z,26.10
2023-04-09T06:05:15.180Z,46.63
2023-04-09T06:07:42.206Z,54.00
2023-04-09T06:10:09.375Z,63.55
2023-04-09T06:12:36.459Z,55.75
2023-04-09T06:15:07.353Z,59.30
2023-04-09T06:17:34.364Z,39.53
2023-04-09T06:20:01.311Z,30.95
2023-04-09T06:22:28.248Z,31.10
2023-04-09T06:24:55.261Z,31.92
2023-04-09T06:27:23.007Z,47.08
2023-04-09T06:29:49.969Z,47.33
2023-04-09T06:32:17.197Z,40.67
2023-04-09T06:34:44.179Z,26.63
2023-04-09T06:37:11.134Z,48.38
2023-04-09T06:39:40.405Z,60.53
2023-04-09T06:42:09.548Z,39.83
2023-04-09T06:44:49.441Z,49.78
2023-04-09T06:47:16.526Z,52.55
2023-04-09T06:49:43.522Z,40.55
2023-04-09T06:52:10.517Z,33.72
2023-04-09T06:54:37.462Z,69.63
2023-04-09T06:57:04.464Z,61.97
2023-04-09T06:59:31.457Z,33.97
2023-04-09T07:01:58.555Z,47.10
2023-04-09T07:04:25.819Z,41.15
2023-04-09T07:06:54.997Z,60.30
2023-04-09T07:09:21.924Z,42.83
2023-04-09T07:11:48.858Z,36.25
2023-04-09T07:14:15.864Z,38.20
2023-04-09T07:16:43.188Z,43.80
2023-04-09T07:19:10.448Z,42.22
2023-04-09T07:21:37.404Z,42.88
2023-04-09T07:24:04.417Z,37.33
2023-04-09T07:26:31.391Z,45.80
2023-04-09T07:28:58.611Z,34.90
2023-04-09T07:31:25.768Z,44.85
2023-04-09T07:33:53.037Z,35.80
2023-04-09T07:36:20.200Z,37.85
2023-04-09T07:38:47.402Z,35.83
2023-04-09T07:41:14.592Z,36.60
2023-04-09T07:43:41.612Z,35.53
2023-04-09T07:46:08.575Z,37.13
2023-04-09T07:48:35.538Z,35.50
2023-04-09T07:51:02.584Z,37.92
2023-04-09T07:53:29.508Z,33.28
2023-04-09T07:55:56.627Z,32.90
2023-04-09T07:58:23.621Z,32.15
2023-04-09T08:00:50.728Z,33.90
2023-04-09T08:03:17.960Z,35.42
2023-04-09T08:05:45.709Z,31.92
2023-04-09T08:08:12.674Z,33.92
2023-04-09T08:10:39.723Z,34.58
2023-04-09T08:13:06.767Z,33.92
2023-04-09T08:15:33.740Z,35.55
2023-04-09T08:18:03.166Z,34.33
2023-04-09T08:20:30.726Z,34.08
2023-04-09T08:22:57.837Z,31.35
2023-04-09T08:25:26.346Z,31.92
2023-04-09T08:27:53.504Z,36.83
2023-04-09T08:30:21.363Z,27.33
2023-04-09T08:32:48.688Z,31.35
2023-04-09T08:35:16.061Z,29.73
2023-04-09T08:37:43.772Z,27.00
2023-04-09T08:40:11.823Z,29.42
2023-04-09T08:42:45.061Z,27.90
2023-04-09T08:45:12.684Z,27.15
2023-04-09T08:47:41.885Z,31.00
2023-04-09T08:50:09.348Z,32.15
2023-04-09T08:52:36.349Z,26.65
2023-04-09T08:55:03.628Z,28.67
2023-04-09T08:57:30.660Z,25.42
2023-04-09T08:59:59.021Z,30.25
2023-04-09T09:02:26.145Z,26.17
2023-04-09T09:04:55.330Z,26.33
2023-04-09T09:09:59.494Z,28.30
2023-04-09T09:12:39.710Z,26.55
2023-04-09T09:15:25.522Z,27.73
2023-04-09T09:18:00.227Z,27.63
2023-04-09T09:20:27.822Z,26.73
2023-04-09T09:22:55.955Z,29.13
2023-04-09T09:25:24.906Z,23.77
2023-04-09T09:27:52.556Z,24.42
2023-04-09T09:30:26.798Z,23.30
2023-04-09T09:33:04.824Z,23.77
2023-04-09T09:35:31.912Z,23.58
2023-04-09T09:38:04.308Z,24.65
2023-04-09T09:40:31.345Z,23.13
2023-04-09T09:42:58.417Z,21.80
2023-04-09T09:45:26.272Z,20.27
2023-04-09T09:47:54.400Z,20.38
2023-04-09T09:50:23.616Z,21.83
2023-04-09T09:52:50.616Z,23.90
2023-04-09T09:55:17.631Z,26.83
2023-04-09T09:57:45.083Z,22.20
2023-04-09T10:00:12.747Z,21.38
2023-04-09T10:02:51.410Z,21.40
2023-04-09T10:05:18.544Z,20.17
2023-04-09T10:07:46.692Z,17.90
2023-04-09T10:10:13.634Z,15.32
2023-04-09T10:12:42.182Z,16.42
2023-04-09T10:15:09.953Z,20.65
2023-04-09T10:17:37.121Z,15.73
2023-04-09T10:20:18.845Z,19.02
2023-04-09T10:22:50.022Z,16.38
2023-04-09T10:25:17.061Z,19.20
2023-04-09T10:27:49.211Z,18.98
2023-04-09T10:30:36.838Z,15.95
2023-04-09T10:33:11.773Z,18.10
2023-04-09T10:35:38.841Z,18.15
2023-04-09T10:38:09.987Z,17.67
2023-04-09T10:40:57.752Z,16.27
2023-04-09T10:43:24.699Z,14.23
2023-04-09T10:45:54.753Z,17.90
2023-04-09T10:48:26.257Z,19.45
2023-04-09T10:50:53.310Z,15.85
2023-04-09T10:53:24.407Z,18.67
2023-04-09T10:55:52.866Z,17.58
2023-04-09T10:58:20.066Z,20.50
2023-04-09T11:00:49.264Z,17.83
2023-04-09T11:03:30.727Z,17.20
2023-04-09T11:06:06.254Z,19.55
2023-04-09T11:08:33.855Z,17.70
2023-04-09T11:11:02.095Z,21.88
2023-04-09T11:13:30.150Z,19.25
2023-04-09T11:15:57.438Z,20.98
2023-04-09T11:18:26.109Z,21.52
2023-04-09T11:21:12.655Z,19.67
2023-04-09T11:23:40.126Z,16.52
2023-04-09T11:26:07.472Z,25.80
2023-04-09T11:28:35.093Z,17.27
2023-04-09T11:31:05.605Z,19.70
2023-04-09T11:33:34.118Z,19.02
2023-04-09T11:36:01.898Z,21.45
2023-04-09T11:38:28.900Z,18.17
2023-04-09T11:40:57.620Z,22.52
2023-04-09T11:43:25.033Z,21.48
2023-04-09T11:45:52.959Z,20.90
2023-04-09T11:48:21.975Z,19.63
2023-04-09T11:50:49.032Z,21.42
2023-04-09T11:53:20.343Z,18.45
2023-04-09T11:55:51.583Z,22.63
2023-04-09T11:58:18.742Z,22.95
2023-04-09T12:00:45.981Z,23.73
2023-04-09T12:03:14.054Z,21.13
2023-04-09T12:05:49.286Z,19.33
2023-04-09T12:08:18.789Z,20.48
2023-04-09T12:10:46.718Z,21.17
2023-04-09T12:13:13.973Z,23.45
2023-04-09T12:15:43.719Z,21.48
2023-04-09T12:18:12.479Z,17.17
2023-04-09T12:20:41.074Z,20.42
2023-04-09T12:23:09.062Z,18.13
2023-04-09T12:25:40.495Z,16.17
2023-04-09T12:28:08.991Z,17.77
2023-04-09T12:30:36.577Z,19.35
2023-04-09T12:33:04.850Z,16.10
2023-04-09T12:35:32.583Z,18.63
2023-04-09T12:37:59.742Z,22.73
2023-04-09T12:40:26.874Z,15.75
2023-04-09T12:42:54.316Z,15.60
2023-04-09T12:45:21.579Z,15.07
2023-04-09T12:47:48.760Z,18.83
2023-04-09T12:50:16.398Z,17.95
2023-04-09T12:52:44.246Z,19.13
2023-04-09T12:55:11.803Z,20.75
2023-04-09T12:57:39.814Z,16.90
2023-04-09T13:00:07.962Z,19.33
2023-04-09T13:02:35.798Z,19.10
2023-04-09T13:05:03.240Z,18.15
2023-04-09T13:07:30.606Z,17.40
2023-04-09T13:09:57.752Z,16.77
2023-04-09T13:12:25.024Z,18.35
2023-04-09T13:14:54.163Z,15.75
2023-04-09T13:17:21.286Z,14.27
2023-04-09T13:19:48.332Z,16.40
2023-04-09T13:22:15.726Z,15.70
2023-04-09T13:24:43.491Z,20.10
2023-04-09T13:27:11.428Z,17.92
2023-04-09T13:29:38.838Z,19.33
2023-04-09T13:32:10.764Z,15.40
2023-04-09T13:34:38.655Z,15.88
2023-04-09T13:37:05.807Z,16.00
2023-04-09T13:39:33.326Z,15.15
2023-04-09T13:42:02.505Z,15.23
2023-04-09T13:44:32.799Z,14.43
2023-04-09T13:46:59.817Z,15.50
2023-04-09T13:49:27.607Z,12.23
2023-04-09T13:51:55.908Z,13.75
2023-04-09T13:54:22.938Z,14.63
2023-04-09T13:56:51.344Z,13.23
2023-04-09T13:59:18.751Z,12.95
2023-04-09T14:01:45.921Z,10.88
2023-04-09T14:04:13.134Z,9.98
2023-04-09T14:06:40.661Z,10.32
2023-04-09T14:09:07.697Z,12.05
2023-04-09T14:11:34.825Z,10.80
2023-04-09T14:14:01.781Z,10.00
2023-04-09T14:16:30.613Z,10.68
2023-04-09T14:18:57.925Z,7.88
2023-04-09T14:21:25.239Z,9.63
2023-04-09T14:23:52.388Z,9.45
2023-04-09T14:26:21.641Z,9.05
2023-04-09T14:28:49.871Z,8.60
2023-04-09T14:31:20.390Z,8.57
2023-04-09T14:33:48.379Z,9.32
2023-04-09T14:36:15.814Z,7.22
2023-04-09T14:38:42.782Z,9.43
2023-04-09T14:41:10.083Z,8.35
2023-04-09T14:43:37.088Z,10.40
2023-04-09T14:46:06.572Z,9.73
2023-04-09T14:48:33.635Z,10.98
2023-04-09T14:51:00.661Z,10.18
2023-04-09T14:53:27.617Z,10.10
2023-04-09T14:55:54.566Z,7.80
2023-04-09T14:58:21.642Z,7.93
2023-04-09T15:00:49.040Z,8.18
2023-04-09T15:03:16.258Z,8.15
2023-04-09T15:05:43.301Z,8.05
2023-04-09T15:08:10.428Z,7.50
2023-04-09T15:10:37.486Z,8.63
2023-04-09T15:13:04.532Z,8.82
2023-04-09T15:15:31.608Z,7.32
2023-04-09T15:18:00.378Z,9.10
2023-04-09T15:20:27.459Z,6.18
2023-04-09T15:22:54.414Z,7.28
2023-04-09T15:25:21.508Z,6.28
2023-04-09T15:27:48.516Z,7.20
2023-04-09T15:30:15.512Z,7.78
2023-04-09T15:32:42.464Z,7.63
2023-04-09T15:35:09.557Z,9.45
2023-04-09T15:37:36.485Z,8.35
2023-04-09T15:40:04.383Z,6.65
2023-04-09T15:42:31.513Z,9.63
2023-04-09T15:44:58.475Z,8.55
2023-04-09T15:47:25.512Z,7.78
2023-04-09T15:49:52.543Z,10.57
2023-04-09T15:52:19.458Z,8.85
2023-04-09T15:54:46.483Z,11.80
2023-04-09T15:57:14.555Z,13.43
2023-04-09T15:59:41.684Z,12.25
2023-04-09T16:02:08.731Z,15.32
2023-04-09T16:04:36.195Z,13.68
2023-04-09T16:07:04.373Z,13.07
2023-04-09T16:09:31.406Z,15.43
2023-04-09T16:11:58.423Z,13.07
2023-04-09T16:14:25.417Z,14.52
2023-04-09T16:16:52.520Z,16.40
2023-04-09T16:19:20.294Z,15.13
2023-04-09T16:21:47.585Z,15.48
2023-04-09T16:24:14.718Z,15.13
2023-04-09T16:26:42.427Z,13.77
2023-04-09T16:29:09.586Z,13.70
2023-04-09T16:31:37.232Z,15.27
2023-04-09T16:34:04.281Z,13.60
2023-04-09T16:36:33.624Z,11.27
2023-04-09T16:39:00.902Z,15.15
2023-04-09T16:41:27.951Z,12.60
2023-04-09T16:43:55.045Z,13.23
2023-04-09T16:46:22.103Z,12.52
2023-04-09T16:48:49.081Z,13.05
2023-04-09T16:51:17.199Z,9.50
2023-04-09T16:53:44.184Z,11.38
2023-04-09T16:56:11.844Z,11.23
2023-04-09T16:58:39.091Z,9.15
2023-04-09T17:01:06.104Z,9.25
2023-04-09T17:03:33.149Z,9.13
2023-04-09T17:06:00.268Z,8.60
2023-04-09T17:08:27.394Z,7.18
2023-04-09T17:11:02.154Z,8.38
2023-04-09T17:13:30.355Z,7.53
2023-04-09T17:15:57.540Z,6.38
2023-04-09T17:18:24.557Z,7.43
2023-04-09T17:20:52.235Z,5.63
2023-04-09T17:23:19.305Z,5.78
2023-04-09T17:25:47.305Z,5.65
2023-04-09T17:28:14.647Z,6.20
2023-04-09T17:30:42.989Z,7.25
2023-04-09T17:33:10.014Z,7.43
2023-04-09T17:35:37.102Z,7.25
2023-04-09T17:38:04.286Z,5.25
2023-04-09T17:40:32.124Z,5.97
2023-04-09T17:42:59.799Z,5.97
2023-04-09T17:45:26.992Z,5.57
2023-04-09T17:47:54.197Z,4.85
2023-04-09T17:50:21.493Z,4.63
2023-04-09T17:52:48.740Z,3.80
2023-04-09T17:55:15.811Z,6.53
2023-04-09T17:57:43.077Z,6.43
2023-04-09T18:00:11.282Z,5.90
2023-04-09T18:02:46.142Z,6.28
2023-04-09T18:05:13.344Z,4.72
2023-04-09T18:07:40.500Z,5.78
2023-04-09T18:10:07.899Z,3.78
2023-04-09T18:12:34.840Z,5.22
2023-04-09T18:15:01.818Z,6.07
2023-04-09T18:17:28.814Z,4.80
2023-04-09T18:19:58.454Z,5.43
2023-04-09T18:24:53.572Z,7.75
2023-04-09T18:27:21.366Z,7.80
2023-04-09T18:29:49.520Z,6.60
2023-04-09T18:32:17.234Z,9.68
2023-04-09T18:34:46.691Z,8.57
2023-04-09T18:37:14.545Z,9.98
2023-04-09T18:39:41.586Z,11.45
2023-04-09T18:42:08.568Z,9.27
2023-04-09T18:44:37.825Z,10.30
2023-04-09T18:47:05.964Z,11.65
2023-04-09T18:49:33.663Z,11.68
2023-04-09T18:52:00.983Z,13.32
2023-04-09T18:54:28.189Z,17.35
2023-04-09T18:56:55.260Z,12.35
2023-04-09T18:59:22.779Z,16.60
2023-04-09T19:01:49.925Z,14.55
2023-04-09T19:04:17.010Z,13.27
2023-04-09T19:06:46.486Z,12.75
2023-04-09T19:09:13.512Z,14.93
2023-04-09T19:11:40.562Z,12.77
2023-04-09T19:14:07.597Z,11.02
2023-04-09T19:16:34.747Z,13.95
2023-04-09T19:19:02.284Z,10.85
2023-04-09T19:21:29.418Z,12.80
2023-04-09T19:23:56.723Z,10.43
2023-04-09T19:26:23.775Z,10.48
2023-04-09T19:28:51.116Z,11.98
2023-04-09T19:31:18.281Z,8.93
2023-04-09T19:33:45.252Z,8.77
2023-04-09T19:36:13.213Z,11.82
2023-04-09T19:38:40.629Z,9.10
2023-04-09T19:41:07.638Z,11.73
2023-04-09T19:43:34.648Z,10.43
2023-04-09T19:46:08.566Z,11.38
2023-04-09T19:48:37.161Z,10.50
2023-04-09T19:51:04.394Z,11.77
2023-04-09T19:53:31.519Z,9.07
2023-04-09T19:55:58.795Z,8.38
2023-04-09T19:58:26.248Z,12.32
2023-04-09T20:00:53.741Z,11.25
2023-04-09T20:03:21.004Z,13.35
2023-04-09T20:05:48.264Z,12.82
2023-04-09T20:08:16.068Z,9.77
2023-04-09T20:10:46.468Z,9.82
2023-04-09T20:13:13.882Z,10.50
2023-04-09T20:15:40.888Z,13.40
2023-04-09T20:18:08.196Z,10.70
2023-04-09T20:20:35.161Z,10.90
2023-04-09T20:23:02.218Z,13.50
2023-04-09T20:25:34.558Z,11.27
2023-04-09T20:28:02.670Z,7.97
2023-04-09T20:30:32.781Z,10.27
2023-04-09T20:32:59.861Z,8.65
2023-04-09T20:35:27.476Z,11.77
2023-04-09T20:37:55.328Z,9.65
2023-04-09T20:40:22.681Z,8.30
2023-04-09T20:42:49.901Z,10.15
2023-04-09T20:45:16.974Z,10.52
2023-04-09T20:47:44.027Z,9.82
2023-04-09T20:50:11.326Z,10.65
2023-04-09T20:52:38.709Z,8.93
2023-04-09T20:55:06.540Z,8.27
2023-04-09T20:57:33.926Z,9.95
2023-04-09T21:00:01.077Z,8.70
2023-04-09T21:02:28.250Z,7.95
2023-04-09T21:04:56.263Z,10.68
2023-04-09T21:07:23.235Z,12.25
2023-04-09T21:09:50.436Z,8.20
2023-04-09T21:12:17.351Z,8.57
2023-04-09T21:14:44.350Z,9.27
2023-04-09T21:17:11.455Z,8.35
2023-04-09T21:19:38.482Z,8.55
2023-04-09T21:22:05.414Z,11.40
2023-04-09T21:24:34.190Z,12.30
2023-04-09T21:27:01.853Z,11.55
2023-04-09T21:29:28.965Z,11.73
2023-04-09T21:31:56.022Z,13.35
2023-04-09T21:34:23.011Z,11.20
2023-04-09T21:36:50.016Z,11.40
2023-04-09T21:39:17.016Z,10.77
2023-04-09T21:41:44.058Z,12.00
2023-04-09T21:44:11.057Z,11.05
2023-04-09T21:46:38.099Z,11.30
2023-04-09T21:49:05.134Z,11.98
2023-04-09T21:51:32.456Z,12.60
2023-04-09T21:54:06.334Z,12.57
2023-04-09T21:56:33.651Z,9.70
2023-04-09T21:59:03.444Z,11.20
2023-04-09T22:01:31.718Z,10.30
2023-04-09T22:03:59.931Z,9.55
2023-04-09T22:06:27.604Z,10.32
2023-04-09T22:08:58.537Z,11.68
2023-04-09T22:11:28.132Z,10.85
2023-04-09T22:13:58.771Z,10.32
2023-04-09T22:16:26.455Z,10.32
2023-04-09T22:18:54.450Z,10.88
2023-04-09T22:21:22.604Z,12.48
2023-04-09T22:23:49.608Z,13.45
2023-04-09T22:26:17.048Z,11.30
2023-04-09T22:28:43.983Z,10.50
2023-04-09T22:31:10.967Z,11.60
2023-04-09T22:33:37.934Z,10.68
2023-04-09T22:36:05.794Z,11.32
2023-04-09T22:38:32.846Z,12.32
2023-04-09T22:41:00.641Z,12.02
2023-04-09T22:43:27.614Z,13.20
2023-04-09T22:45:54.926Z,11.88
2023-04-09T22:48:22.093Z,13.52
2023-04-09T22:50:49.645Z,14.00
2023-04-09T22:53:19.340Z,12.85
2023-04-09T22:55:54.598Z,13.48
2023-04-09T22:58:21.623Z,11.20
2023-04-09T23:00:49.797Z,13.98
2023-04-09T23:03:17.382Z,10.68
2023-04-09T23:05:44.395Z,13.35
2023-04-09T23:08:11.589Z,13.98
2023-04-09T23:10:38.606Z,12.45
2023-04-09T23:13:05.752Z,13.02
2023-04-09T23:15:32.703Z,12.60
2023-04-09T23:17:59.714Z,13.68
2023-04-09T23:20:26.719Z,12.93
2023-04-09T23:22:53.714Z,12.85
2023-04-09T23:25:21.995Z,14.27
2023-04-09T23:27:49.064Z,13.20
2023-04-09T23:30:18.798Z,12.30
2023-04-09T23:32:45.916Z,13.30
2023-04-09T23:35:13.015Z,12.57
2023-04-09T23:37:40.913Z,14.13
2023-04-09T23:40:08.668Z,13.75
2023-04-09T23:42:35.806Z,14.35
2023-04-09T23:45:04.439Z,13.50
2023-04-09T23:47:33.753Z,13.63
2023-04-09T23:50:05.104Z,12.30
2023-04-09T23:52:36.873Z,16.45
2023-04-09T23:55:04.498Z,15.13
2023-04-09T23:57:31.520Z,14.10
2023-04-09T23:59:58.985Z,15.65
